Time;durP1;ratioP1;P1;durP2;ratioP2;P2;SDS_P1;SDS_P2;PMS_P1;PMS_P2;Temp;Humidity;BMP_temperature;BMP_pressure;BME280_temperature;BME280_humidity;BME280_pressure;Samples;Min_cycle;Max_cycle;Signal;HPM_P1;HPM_P2
2022/09/28 00:01:13;;;;;;;12.77;8.07;;;;;;;8.87;100.00;96467.87;1728230;82;21019;-88
2022/09/28 00:03:39;;;;;;;11.22;6.50;;;;;;;8.80;100.00;96459.94;1726497;81;21336;-88
2022/09/28 00:06:07;;;;;;;21.57;8.55;;;;;;;8.72;100.00;96456.09;1727987;83;20964;-89
2022/09/28 00:08:34;;;;;;;13.20;7.85;;;;;;;8.69;100.00;96459.38;1728490;81;21039;-84
2022/09/28 00:11:00;;;;;;;14.87;7.45;;;;;;;8.68;100.00;96459.14;1731399;82;21436;-85
2022/09/28 00:13:27;;;;;;;12.73;7.80;;;;;;;8.68;100.00;96459.94;1722251;82;21039;-87
2022/09/28 00:16:09;;;;;;;13.05;7.35;;;;;;;8.68;100.00;96459.94;1722013;82;21200;-85
2022/09/28 00:18:35;;;;;;;12.53;8.13;;;;;;;8.65;100.00;96452.45;1702225;82;20983;-88
2022/09/28 00:21:03;;;;;;;13.83;8.08;;;;;;;8.63;100.00;96448.44;1731277;82;20960;-88
2022/09/28 00:23:29;;;;;;;16.23;10.03;;;;;;;8.60;100.00;96447.16;1731013;81;21046;-84
2022/09/28 00:25:55;;;;;;;16.77;9.33;;;;;;;8.62;100.00;96450.34;1728066;83;20941;-88
2022/09/28 00:28:21;;;;;;;13.25;7.05;;;;;;;8.65;100.00;96459.20;1728261;81;21820;-84
2022/09/28 00:30:47;;;;;;;12.18;8.25;;;;;;;8.65;100.00;96457.86;1728146;83;20892;-85
2022/09/28 00:33:13;;;;;;;20.00;8.20;;;;;;;8.66;100.00;96462.15;1728150;81;20964;-84
2022/09/28 00:35:39;;;;;;;11.93;7.65;;;;;;;8.68;100.00;96457.78;1728235;83;20893;-84
2022/09/28 00:38:04;;;;;;;13.60;8.00;;;;;;;8.69;100.00;96453.42;1728219;81;20948;-85
2022/09/28 00:40:30;;;;;;;15.43;8.10;;;;;;;8.69;100.00;96453.98;1728208;83;22048;-89
2022/09/28 00:42:56;;;;;;;13.58;9.08;;;;;;;8.66;100.00;96457.30;1728195;81;20948;-88
2022/09/28 00:45:23;;;;;;;18.37;9.55;;;;;;;8.65;100.00;96448.95;1728239;83;21016;-89
2022/09/28 00:47:55;;;;;;;12.60;8.25;;;;;;;8.65;100.00;96445.70;1728016;81;21051;-89
2022/09/28 00:50:29;;;;;;;15.68;8.85;;;;;;;8.66;100.00;96444.59;1727901;83;21039;-88
2022/09/28 00:53:18;;;;;;;11.15;7.17;;;;;;;8.69;100.00;96448.58;1676936;83;21495;-89
2022/09/28 00:55:51;;;;;;;15.68;7.70;;;;;;;8.70;100.00;96444.77;1728219;83;21499;-85
2022/09/28 00:58:20;;;;;;;13.10;8.00;;;;;;;8.71;100.00;96439.06;1728168;81;21047;-84
2022/09/28 01:00:47;;;;;;;11.08;7.17;;;;;;;8.74;100.00;96445.22;1698897;83;21004;-84
2022/09/28 01:03:13;;;;;;;13.28;8.48;;;;;;;8.76;100.00;96447.61;1728176;81;21464;-88
2022/09/28 01:05:39;;;;;;;13.60;8.18;;;;;;;8.79;100.00;96442.94;1728323;83;21342;-88
2022/09/28 01:08:05;;;;;;;12.30;7.78;;;;;;;8.79;100.00;96440.23;1728069;81;21500;-84
2022/09/28 01:10:31;;;;;;;14.35;7.85;;;;;;;8.78;100.00;96439.99;1728183;83;20917;-84
2022/09/28 01:12:58;;;;;;;12.20;8.10;;;;;;;8.81;100.00;96439.40;1728202;81;20983;-89
2022/09/28 01:15:28;;;;;;;14.28;8.33;;;;;;;8.81;100.00;96440.75;1728226;83;21491;-89
2022/09/28 01:18:19;;;;;;;13.13;8.25;;;;;;;8.82;100.00;96445.05;1728174;81;21085;-88
2022/09/28 01:20:55;;;;;;;14.83;8.98;;;;;;;8.81;100.00;96448.06;1730372;82;20980;-84
2022/09/28 01:23:48;;;;;;;21.75;10.65;;;;;;;8.78;100.00;96445.39;1701750;82;21053;-84
2022/09/28 01:26:53;;;;;;;17.92;11.00;;;;;;;8.82;100.00;96448.30;1731420;82;21013;-89
2022/09/28 01:29:39;;;;;;;19.62;12.40;;;;;;;8.86;100.00;96450.62;1731691;82;21028;-89
2022/09/28 01:32:19;;;;;;;20.55;12.80;;;;;;;8.86;100.00;96452.77;1731635;82;21669;-89
2022/09/28 01:34:51;;;;;;;21.10;11.75;;;;;;;8.82;100.00;96443.69;1731911;82;21518;-88
2022/09/28 01:37:18;;;;;;;17.10;11.12;;;;;;;8.88;100.00;96455.95;1731315;81;21548;-85
2022/09/28 01:39:46;;;;;;;21.05;12.23;;;;;;;8.91;100.00;96452.66;1732394;82;21082;-85
2022/09/28 01:42:20;;;;;;;24.32;15.90;;;;;;;8.93;100.00;96453.70;1726815;82;21037;-88
2022/09/28 01:44:48;;;;;;;16.77;10.85;;;;;;;8.92;100.00;96450.20;1731898;82;21509;-88
2022/09/28 01:47:16;;;;;;;19.73;11.08;;;;;;;8.95;100.00;96450.13;1731828;82;21092;-87
2022/09/28 01:49:49;;;;;;;16.00;10.05;;;;;;;8.95;100.00;96449.58;1731826;82;21036;-84
2022/09/28 01:52:32;;;;;;;22.48;12.47;;;;;;;8.98;100.00;96448.98;1702432;82;21071;-84
2022/09/28 01:55:40;;;;;;;63.23;26.85;;;;;;;8.99;100.00;96449.78;1731891;82;21530;-85
2022/09/28 01:58:39;;;;;;;19.43;12.93;;;;;;;8.99;100.00;96453.27;1731944;82;21303;-88
2022/09/28 02:01:11;;;;;;;21.73;11.35;;;;;;;8.96;100.00;96453.08;1731613;82;20982;-88
2022/09/28 02:03:46;;;;;;;17.95;10.25;;;;;;;8.94;100.00;96453.38;1731650;82;20974;-88
2022/09/28 02:06:23;;;;;;;48.42;20.25;;;;;;;8.92;100.00;96450.20;1731631;82;21060;-85
2022/09/28 02:08:53;;;;;;;33.83;19.87;;;;;;;8.91;100.00;96451.31;1731637;82;21064;-85
2022/09/28 02:11:20;;;;;;;20.00;12.33;;;;;;;8.88;100.00;96450.55;1731648;82;21181;-84
2022/09/28 02:13:57;;;;;;;19.25;11.78;;;;;;;8.89;100.00;96459.48;1735235;81;21442;-89
2022/09/28 02:16:46;;;;;;;16.65;11.20;;;;;;;8.87;100.00;96463.81;1751920;81;21053;-84
2022/09/28 02:19:24;;;;;;;14.35;8.65;;;;;;;8.85;100.00;96468.73;1751868;80;21005;-84
2022/09/28 02:22:22;;;;;;;15.32;10.48;;;;;;;8.81;100.00;96469.66;1698211;84;21443;-83
2022/09/28 02:24:58;;;;;;;15.88;8.15;;;;;;;8.73;100.00;96470.63;1731330;82;21066;-88
2022/09/28 02:27:32;;;;;;;12.65;7.85;;;;;;;8.68;100.00;96475.34;1731702;81;21043;-88
2022/09/28 02:29:58;;;;;;;12.18;7.85;;;;;;;8.64;100.00;96482.47;1730791;82;21579;-89
2022/09/28 02:32:24;;;;;;;13.70;7.67;;;;;;;8.59;100.00;96482.56;1731855;81;20857;-89
2022/09/28 02:34:50;;;;;;;10.68;7.78;;;;;;;8.55;100.00;96482.39;1732013;82;20884;-88
2022/09/28 02:37:16;;;;;;;14.23;7.95;;;;;;;8.53;100.00;96483.77;1731383;81;21320;-87
2022/09/28 02:39:42;;;;;;;13.38;8.08;;;;;;;8.48;100.00;96477.95;1731797;82;20897;-84
2022/09/28 02:42:16;;;;;;;13.30;7.72;;;;;;;8.40;100.00;96484.86;1731462;81;20912;-85
2022/09/28 02:45:08;;;;;;;16.27;8.68;;;;;;;8.31;100.00;96482.59;1731553;82;21033;-89
2022/09/28 02:47:55;;;;;;;25.15;11.57;;;;;;;8.12;100.00;96477.32;1731621;81;21051;-83
2022/09/28 02:50:52;;;;;;;30.92;19.37;;;;;;;8.12;100.00;96477.32;1731688;82;21883;-84
2022/09/28 02:53:53;;;;;;;33.25;17.60;;;;;;;7.99;100.00;96486.20;1731513;81;21486;-84
2022/09/28 02:56:33;;;;;;;38.95;22.37;;;;;;;7.99;100.00;96486.20;1731550;82;21028;-88
2022/09/28 02:59:11;;;;;;;50.25;30.85;;;;;;;7.86;100.00;96491.03;1731504;81;21032;-88
2022/09/28 03:01:52;;;;;;;54.30;31.20;;;;;;;7.86;100.00;96491.03;1725759;82;21610;-88
2022/09/28 03:04:35;;;;;;;54.65;31.62;;;;;;;7.78;100.00;96484.46;1729526;82;21173;-85
2022/09/28 03:07:32;;;;;;;52.93;30.20;;;;;;;7.69;100.00;96477.33;1731499;81;21011;-87
2022/09/28 03:10:13;;;;;;;44.85;27.75;;;;;;;7.69;100.00;96477.33;1731754;82;21003;-85
2022/09/28 03:12:39;;;;;;;42.62;27.10;;;;;;;7.61;100.00;96479.64;1714125;81;21481;-84
2022/09/28 03:15:22;;;;;;;39.08;20.62;;;;;;;7.53;100.00;96472.80;1731953;82;22490;-89
2022/09/28 03:17:48;;;;;;;27.58;15.30;;;;;;;7.49;100.00;96470.42;1730215;81;21846;-88
2022/09/28 03:20:14;;;;;;;22.25;12.07;;;;;;;7.39;100.00;96469.27;1731630;82;20885;-88
2022/09/28 03:22:40;;;;;;;12.88;8.83;;;;;;;7.30;100.00;96483.97;1731637;82;21025;-84
2022/09/28 03:25:06;;;;;;;16.45;8.73;;;;;;;7.22;100.00;96477.91;1731774;82;20905;-88
2022/09/28 03:27:33;;;;;;;13.22;8.70;;;;;;;7.19;100.00;96476.61;1731450;82;20989;-88
2022/09/28 03:29:59;;;;;;;12.90;7.65;;;;;;;7.16;100.00;96483.12;1731780;82;21388;-84
2022/09/28 03:32:25;;;;;;;13.40;7.35;;;;;;;7.16;100.00;96489.85;1731452;82;21029;-84
2022/09/28 03:34:51;;;;;;;15.05;9.45;;;;;;;7.12;100.00;96476.73;1731729;82;20873;-89
2022/09/28 03:37:17;;;;;;;14.75;8.80;;;;;;;7.06;100.00;96490.81;1731529;82;20969;-84
2022/09/28 03:39:43;;;;;;;11.93;8.08;;;;;;;7.02;100.00;96488.47;1731868;82;20969;-84
2022/09/28 03:42:09;;;;;;;14.87;9.28;;;;;;;6.96;100.00;96489.64;1732121;82;21207;-83
2022/09/28 03:44:35;;;;;;;11.90;7.25;;;;;;;6.93;100.00;96491.03;1731986;82;21031;-88
2022/09/28 03:47:00;;;;;;;11.05;7.15;;;;;;;6.91;100.00;96494.55;1731510;82;21081;-84
2022/09/28 03:49:26;;;;;;;11.10;8.03;;;;;;;6.88;100.00;96495.14;1702822;82;20941;-84
2022/09/28 03:51:52;;;;;;;12.63;5.90;;;;;;;6.88;100.00;96490.30;1731503;82;21061;-88
2022/09/28 03:54:18;;;;;;;10.03;6.58;;;;;;;6.86;100.00;96485.77;1726456;80;21052;-84
2022/09/28 03:56:44;;;;;;;10.98;6.28;;;;;;;6.78;100.00;96479.94;1726314;81;21489;-88
2022/09/28 03:59:10;;;;;;;13.43;6.62;;;;;;;6.73;100.00;96482.70;1745935;79;20961;-83
2022/09/28 04:01:36;;;;;;;12.47;6.08;;;;;;;6.73;100.00;96491.32;1752308;81;20930;-84
2022/09/28 04:04:02;;;;;;;11.25;7.53;;;;;;;6.76;100.00;96492.91;1764840;79;20873;-88
2022/09/28 04:06:28;;;;;;;22.93;14.28;;;;;;;6.78;100.00;96489.36;1735738;81;21333;-88
2022/09/28 04:08:54;;;;;;;29.12;17.73;;;;;;;6.78;100.00;96492.61;1731268;82;20906;-84
2022/09/28 04:11:20;;;;;;;45.48;24.05;;;;;;;6.76;100.00;96492.10;1731443;82;21052;-87
2022/09/28 04:13:49;;;;;;;26.37;18.87;;;;;;;6.74;100.00;96490.23;1743426;81;21569;-89
2022/09/28 04:16:14;;;;;;;;;;;;;;;6.62;100.00;96493.91;1767777;81;21063;-84
2022/09/28 04:18:41;;;;;;;14.95;10.03;;;;;;;6.47;100.00;96492.23;1765228;79;21070;-88
2022/09/28 04:21:10;;;;;;;17.12;12.80;;;;;;;6.42;100.00;96494.45;1740208;81;21001;-84
2022/09/28 04:23:37;;;;;;;18.20;13.30;;;;;;;6.45;100.00;96494.41;1729213;81;21024;-88
2022/09/28 04:26:05;;;;;;;17.48;12.47;;;;;;;6.48;100.00;96489.78;1728066;83;21007;-83
2022/09/28 04:31:22;;;;;;;14.87;10.90;;;;;;;6.52;100.00;96498.90;1730216;82;21829;-88
2022/09/28 04:33:47;;;;;;;12.53;9.10;;;;;;;6.52;100.00;96501.59;1731611;82;21052;-85
2022/09/28 04:36:13;;;;;;;16.30;10.70;;;;;;;6.55;100.00;96501.55;1731430;81;20985;-84
2022/09/28 04:38:39;;;;;;;15.35;11.38;;;;;;;6.57;100.00;96495.31;1731525;82;20870;-84
2022/09/28 04:41:06;;;;;;;22.15;12.43;;;;;;;6.56;100.00;96491.03;1731710;81;21009;-88
2022/09/28 04:43:32;;;;;;;20.62;13.05;;;;;;;6.61;100.00;96492.31;1731407;82;21149;-88
2022/09/28 04:45:59;;;;;;;17.52;12.30;;;;;;;6.64;100.00;96499.25;1731629;82;21044;-84
2022/09/28 04:48:26;;;;;;;17.50;11.93;;;;;;;6.67;100.00;96494.66;1702630;82;21466;-84
2022/09/28 04:50:56;;;;;;;19.07;13.18;;;;;;;6.66;100.00;96497.61;1730986;82;21036;-85
2022/09/28 04:53:22;;;;;;;16.70;9.73;;;;;;;6.65;100.00;96498.70;1730570;82;21028;-88
2022/09/28 04:56:06;;;;;;;10.08;7.28;;;;;;;6.65;100.00;96498.70;1730809;82;21211;-84
2022/09/28 04:58:34;;;;;;;12.50;8.70;;;;;;;6.59;100.00;96503.37;1729594;81;21066;-89
2022/09/28 05:01:04;;;;;;;18.10;8.43;;;;;;;6.55;100.00;96501.55;1727923;81;21031;-85
2022/09/28 05:03:30;;;;;;;12.68;8.30;;;;;;;6.57;100.00;96505.53;1701857;84;21000;-84
2022/09/28 05:05:56;;;;;;;13.55;8.93;;;;;;;6.51;100.00;96506.72;1711519;82;21006;-83
2022/09/28 05:08:22;;;;;;;12.68;9.20;;;;;;;6.44;100.00;96510.31;1706915;82;21095;-88
2022/09/28 05:10:48;;;;;;;13.98;8.33;;;;;;;6.38;100.00;96509.56;1730195;82;20881;-88
2022/09/28 05:13:14;;;;;;;15.70;7.65;;;;;;;6.34;100.00;96505.86;1728474;81;20949;-84
2022/09/28 05:15:40;;;;;;;12.03;6.10;;;;;;;6.27;100.00;96504.61;1728391;82;21452;-87
2022/09/28 05:18:07;;;;;;;9.15;5.92;;;;;;;6.19;100.00;96502.02;1729752;81;21020;-88
2022/09/28 05:20:33;;;;;;;8.80;5.12;;;;;;;6.18;100.00;96503.11;1730921;82;21292;-84
2022/09/28 05:22:59;;;;;;;9.95;6.20;;;;;;;6.15;100.00;96507.18;1724869;82;21053;-84
2022/09/28 05:25:26;;;;;;;9.85;5.97;;;;;;;6.11;100.00;96504.80;1731672;81;21386;-89
2022/09/28 05:27:55;;;;;;;10.05;6.62;;;;;;;6.18;100.00;96507.94;1731628;82;21940;-88
2022/09/28 05:30:22;;;;;;;13.58;8.43;;;;;;;6.21;100.00;96514.62;1731185;82;21531;-89
2022/09/28 05:32:53;;;;;;;13.55;9.58;;;;;;;6.28;100.00;96509.70;1728408;81;21969;-88
2022/09/28 05:35:16;;;;;;;13.43;8.48;;;;;;;6.34;100.00;96522.55;1731980;81;21008;-84
2022/09/28 05:37:42;;;;;;;17.15;8.98;;;;;;;6.40;100.00;96523.52;1752165;80;20897;-88
2022/09/28 05:40:09;;;;;;;10.00;7.55;;;;;;;6.44;100.00;96526.45;1749405;81;20865;-89
2022/09/28 05:42:35;;;;;;;10.43;6.90;;;;;;;6.53;100.00;96523.37;1729073;82;21035;-84
2022/09/28 05:45:05;;;;;;;13.53;8.18;;;;;;;6.64;100.00;96519.44;1730378;82;21251;-89
2022/09/28 05:47:36;;;;;;;16.30;8.73;;;;;;;6.71;100.00;96525.81;1731538;82;21004;-84
2022/09/28 05:50:03;;;;;;;12.98;7.85;;;;;;;6.84;100.00;96531.03;1732928;82;21489;-84
2022/09/28 05:52:28;;;;;;;12.00;7.87;;;;;;;6.99;100.00;96528.89;1728370;81;21012;-84
2022/09/28 05:54:54;;;;;;;11.80;7.60;;;;;;;7.14;100.00;96534.59;1729337;81;21590;-88
2022/09/28 05:57:20;;;;;;;12.18;6.65;;;;;;;7.26;100.00;96536.31;1732557;81;21058;-89
2022/09/28 05:59:46;;;;;;;17.00;6.05;;;;;;;7.42;100.00;96534.14;1756009;80;21015;-84
2022/09/28 06:02:12;;;;;;;8.50;5.78;;;;;;;7.50;100.00;96530.77;1752527;79;20893;-84
2022/09/28 06:04:38;;;;;;;9.88;6.37;;;;;;;7.61;100.00;96536.81;1762647;80;21001;-89
2022/09/28 06:07:04;;;;;;;6.47;4.78;;;;;;;7.70;100.00;96531.53;1743393;81;20876;-87
2022/09/28 06:09:30;;;;;;;8.10;4.67;;;;;;;7.83;100.00;96525.34;1732683;81;21085;-84
2022/09/28 06:11:58;;;;;;;7.35;4.60;;;;;;;7.89;100.00;96518.22;1736559;81;20948;-89
2022/09/28 06:14:24;;;;;;;9.60;6.47;;;;;;;7.87;100.00;96516.92;1726034;81;20989;-84
2022/09/28 06:16:51;;;;;;;11.83;7.35;;;;;;;7.93;100.00;96512.47;1715309;81;21550;-89
2022/09/28 06:19:16;;;;;;;5.62;4.17;;;;;;;8.03;100.00;96513.36;1732495;81;21099;-88
2022/09/28 06:21:42;;;;;;;5.75;4.45;;;;;;;8.02;100.00;96515.81;1726438;81;21352;-89
2022/09/28 06:24:08;;;;;;;7.15;4.33;;;;;;;8.12;100.00;96512.95;1724658;81;20939;-88
2022/09/28 06:26:34;;;;;;;5.55;3.83;;;;;;;8.20;100.00;96505.47;1731270;81;20972;-89
2022/09/28 06:29:02;;;;;;;5.28;3.12;;;;;;;8.27;100.00;96484.83;1727636;81;21015;-84
2022/09/28 06:31:28;;;;;;;5.35;3.42;;;;;;;8.34;100.00;96482.53;1727874;81;21075;-84
2022/09/28 06:33:55;;;;;;;5.25;2.50;;;;;;;8.45;100.00;96480.68;1751863;79;22665;-89
2022/09/28 06:36:21;;;;;;;6.37;2.47;;;;;;;8.62;100.00;96490.84;1757465;80;21238;-84
2022/09/28 06:38:47;;;;;;;5.28;2.95;;;;;;;8.80;100.00;96491.00;1752952;80;21141;-84
2022/09/28 06:41:13;;;;;;;18.95;7.65;;;;;;;8.91;100.00;96492.38;1754028;80;20933;-84
2022/09/28 06:43:39;;;;;;;9.70;3.67;;;;;;;9.07;100.00;96489.58;1735190;80;21060;-85
2022/09/28 06:46:07;;;;;;;11.30;5.58;;;;;;;9.17;100.00;96495.28;1759802;80;21149;-88
2022/09/28 06:48:33;;;;;;;9.78;5.40;;;;;;;9.36;100.00;96499.94;1751230;80;21032;-89
2022/09/28 06:50:59;;;;;;;8.60;4.45;;;;;;;9.77;100.00;96504.31;1759910;80;21511;-84
2022/09/28 06:53:27;;;;;;;3.60;2.20;;;;;;;10.48;100.00;96500.21;1731818;81;21052;-88
2022/09/28 06:55:53;;;;;;;5.25;2.85;;;;;;;11.40;100.00;96504.40;1745039;80;20950;-84
2022/09/28 06:58:19;;;;;;;4.70;3.05;;;;;;;11.68;100.00;96499.95;1740762;80;21139;-90
2022/09/28 07:00:46;;;;;;;3.90;2.12;;;;;;;12.54;100.00;96497.46;1736545;81;21118;-89
2022/09/28 07:03:14;;;;;;;2.42;1.60;;;;;;;13.53;100.00;96493.61;1727849;81;21039;-85
2022/09/28 07:05:43;;;;;;;6.20;1.65;;;;;;;13.17;100.00;96500.47;1719496;81;21115;-84
2022/09/28 07:08:09;;;;;;;6.45;1.95;;;;;;;13.32;100.00;96497.70;1750267;79;21041;-87
2022/09/28 07:10:34;;;;;;;6.58;5.87;;;;;;;14.10;100.00;96496.91;1759315;79;21075;-89
2022/09/28 07:13:03;;;;;;;20.80;16.40;;;;;;;14.29;84.88;96499.08;1719478;81;20886;-84
2022/09/28 07:15:30;;;;;;;4.85;2.65;;;;;;;15.00;91.15;96502.66;1719520;81;21086;-89
2022/09/28 07:18:00;;;;;;;9.38;5.28;;;;;;;16.18;93.41;96510.02;1735477;81;21064;-86
2022/09/28 07:20:26;;;;;;;4.55;2.52;;;;;;;17.01;85.50;96502.62;1761549;80;21622;-85
2022/09/28 07:22:54;;;;;;;4.35;2.15;;;;;;;16.15;69.85;96504.69;1752113;80;21132;-89
2022/09/28 07:25:22;;;;;;;2.27;1.65;;;;;;;16.21;83.64;96510.66;1752213;80;21556;-89
2022/09/28 07:27:47;;;;;;;6.72;1.30;;;;;;;16.36;81.56;96522.17;1734219;81;20969;-85
2022/09/28 07:30:14;;;;;;;2.92;1.35;;;;;;;15.47;81.85;96517.09;1728284;82;21003;-85
2022/09/28 07:32:39;;;;;;;5.55;1.75;;;;;;;15.22;78.29;96507.61;1729038;81;21005;-89
2022/09/28 07:35:09;;;;;;;3.12;1.62;;;;;;;14.51;71.44;96508.74;1731932;81;21062;-85
2022/09/28 07:37:35;;;;;;;3.72;2.08;;;;;;;14.11;75.89;96517.56;1726051;82;21052;-89
2022/09/28 07:42:50;;;;;;;3.27;2.05;;;;;;;13.52;77.74;96511.86;1753675;79;21617;-84
2022/09/28 07:45:16;;;;;;;1.57;0.90;;;;;;;13.47;75.02;96512.05;1760599;80;20910;-89
2022/09/28 07:47:42;;;;;;;3.00;0.70;;;;;;;13.26;76.82;96522.18;1740320;80;21485;-89
2022/09/28 07:50:08;;;;;;;0.53;0.50;;;;;;;13.02;76.31;96520.66;1754204;80;20886;-90
2022/09/28 07:52:35;;;;;;;0.85;0.70;;;;;;;12.82;74.67;96516.78;1752890;80;21104;-89
2022/09/28 07:55:01;;;;;;;2.08;0.95;;;;;;;13.20;75.56;96518.06;1746132;81;21174;-85
2022/09/28 07:57:27;;;;;;;1.70;0.50;;;;;;;13.60;74.89;96518.92;1747415;80;21021;-90
2022/09/28 07:59:53;;;;;;;9.80;5.70;;;;;;;13.81;71.71;96516.92;1750340;80;21983;-90
2022/09/28 08:02:20;;;;;;;5.55;3.65;;;;;;;15.20;69.17;96515.33;1766776;79;20949;-86
2022/09/28 08:04:48;;;;;;;5.97;3.65;;;;;;;16.94;67.87;96514.20;1737958;79;21163;-91
2022/09/28 08:07:15;;;;;;;2.65;1.00;;;;;;;17.99;66.36;96499.50;1727035;81;21017;-87
2022/09/28 08:09:42;;;;;;;2.98;0.78;;;;;;;19.32;65.33;96500.41;1750946;79;21468;-85
2022/09/28 08:12:08;;;;;;;1.37;0.80;;;;;;;18.45;63.17;96496.74;1724723;81;21319;-92
2022/09/28 08:14:34;;;;;;;2.42;0.80;;;;;;;17.43;61.72;96503.52;1758585;80;21100;-90
2022/09/28 08:17:00;;;;;;;3.27;1.10;;;;;;;16.68;63.18;96495.61;1750185;80;21416;-90
2022/09/28 08:21:43;;;;;;;1.75;0.88;;;;;;;16.10;62.73;96502.78;1723594;81;21475;-89
2022/09/28 08:21:54;;;;;;;14.23;1.67;;;;;;;15.70;65.19;96498.22;1714641;81;21008;-85
2022/09/28 08:24:22;;;;;;;2.00;1.20;;;;;;;16.46;63.18;96487.47;1713789;81;21109;-85
2022/09/28 08:26:48;;;;;;;2.10;1.25;;;;;;;18.27;63.40;96486.86;1729893;82;21083;-86
2022/09/28 08:29:15;;;;;;;3.15;1.40;;;;;;;19.19;54.71;96487.47;1730116;82;20947;-91
2022/09/28 08:31:41;;;;;;;10.65;6.08;;;;;;;20.91;57.01;96484.47;1729133;81;21022;-87
2022/09/28 08:34:08;;;;;;;3.50;2.20;;;;;;;22.05;46.89;96481.63;1754609;80;21450;-91
2022/09/28 08:36:34;;;;;;;3.70;1.90;;;;;;;23.19;49.34;96476.67;1726194;81;21396;-86
2022/09/28 08:39:00;;;;;;;2.55;1.15;;;;;;;23.67;46.24;96473.34;1751388;80;20992;-92
2022/09/28 08:41:41;;;;;;;1.25;0.70;;;;;;;24.79;43.99;96477.15;1751976;80;20979;-91
2022/09/28 08:44:23;;;;;;;1.75;0.93;;;;;;;24.26;44.83;96478.92;1751531;80;21473;-87
2022/09/28 08:46:57;;;;;;;1.15;0.55;;;;;;;25.67;41.73;96466.29;1742001;81;21011;-91
2022/09/28 08:49:37;;;;;;;1.47;0.78;;;;;;;25.91;41.92;96465.80;1735826;80;21164;-91
2022/09/28 08:52:12;;;;;;;2.65;0.60;;;;;;;24.10;42.99;96465.61;1748289;80;21009;-86
2022/09/28 08:55:03;;;;;;;2.72;1.17;;;;;;;22.13;42.72;96461.73;1738198;81;21088;-86
2022/09/28 08:57:49;;;;;;;8.73;5.80;;;;;;;20.52;44.95;96457.48;1752206;79;20987;-89
2022/09/28 09:00:20;;;;;;;4.37;3.15;;;;;;;19.23;47.07;96451.26;1719400;80;21001;-90
2022/09/28 09:02:46;;;;;;;2.60;0.82;;;;;;;18.31;47.43;96452.87;1741034;80;22454;-91
2022/09/28 09:05:17;;;;;;;1.00;0.57;;;;;;;17.62;49.30;96445.20;1751832;80;21135;-88
2022/09/28 09:08:12;;;;;;;2.55;0.88;;;;;;;17.11;50.17;96451.42;1716402;82;21465;-91
2022/09/28 09:10:52;;;;;;;1.05;0.82;;;;;;;16.58;50.09;96451.83;1727062;81;21107;-85
2022/09/28 09:13:38;;;;;;;1.45;0.80;;;;;;;16.04;52.04;96466.14;1724191;81;21015;-91
2022/09/28 09:16:32;;;;;;;1.30;0.70;;;;;;;15.64;51.59;96453.22;1722795;82;21802;-90
2022/09/28 09:19:14;;;;;;;2.87;0.75;;;;;;;15.40;52.03;96471.27;1729719;81;21803;-85
2022/09/28 09:21:46;;;;;;;1.72;1.20;;;;;;;15.05;54.65;96453.91;1727590;81;21093;-90
2022/09/28 09:24:26;;;;;;;2.55;1.17;;;;;;;15.03;54.05;96458.89;1746886;80;21052;-90
2022/09/28 09:27:25;;;;;;;1.87;0.50;;;;;;;14.82;55.15;96463.17;1764513;80;20996;-85
2022/09/28 09:30:10;;;;;;;0.60;0.57;;;;;;;14.85;54.24;96460.53;1749956;79;21160;-90
2022/09/28 09:33:23;;;;;;;0.80;0.57;;;;;;;14.76;53.38;96469.98;1751914;81;21130;-86
2022/09/28 09:36:11;;;;;;;1.57;0.60;;;;;;;14.65;53.37;96460.13;1724165;80;21061;-85
2022/09/28 09:39:03;;;;;;;1.02;0.50;;;;;;;14.62;53.76;96464.92;1737259;81;21166;-85
2022/09/28 09:41:53;;;;;;;1.10;0.60;;;;;;;14.58;54.76;96451.16;1748457;80;21020;-85
2022/09/28 09:44:31;;;;;;;1.15;0.93;;;;;;;14.62;54.58;96450.72;1746368;80;21130;-90
2022/09/28 09:47:09;;;;;;;4.08;1.95;;;;;;;14.61;55.12;96460.58;1752936;80;21492;-91
2022/09/28 09:49:44;;;;;;;7.25;1.92;;;;;;;14.58;55.80;96456.61;1754674;80;21524;-85
2022/09/28 09:52:35;;;;;;;1.85;0.65;;;;;;;14.58;56.21;96467.52;1747555;80;21084;-88
2022/09/28 09:55:13;;;;;;;0.95;0.50;;;;;;;14.62;55.97;96467.64;1746957;80;21044;-84
2022/09/28 09:57:47;;;;;;;1.10;0.70;;;;;;;14.77;54.90;96458.73;1736134;81;21280;-89
2022/09/28 10:00:14;;;;;;;1.30;0.85;;;;;;;14.87;55.54;96454.76;1723429;82;21039;-84
2022/09/28 10:02:41;;;;;;;0.60;0.50;;;;;;;14.90;56.12;96452.13;1718078;82;20970;-85
2022/09/28 10:05:16;;;;;;;3.12;0.50;;;;;;;14.89;55.49;96455.20;1727694;81;21069;-90
2022/09/28 10:07:55;;;;;;;0.80;0.65;;;;;;;14.97;55.68;96458.94;1752091;80;21095;-89
2022/09/28 10:10:28;;;;;;;2.75;1.20;;;;;;;14.90;55.40;96454.85;1748321;80;21375;-88
2022/09/28 10:12:54;;;;;;;1.10;0.57;;;;;;;14.89;55.80;96462.81;1752801;80;21032;-85
2022/09/28 10:15:26;;;;;;;0.85;0.40;;;;;;;14.85;56.73;96451.56;1751939;80;21380;-90
2022/09/28 10:17:54;;;;;;;0.40;0.40;;;;;;;14.77;56.76;96458.73;1751750;80;21076;-89
2022/09/28 10:20:21;;;;;;;0.93;0.60;;;;;;;14.68;57.11;96461.59;1748296;80;21135;-89
2022/09/28 10:22:50;;;;;;;0.78;0.50;;;;;;;14.65;57.67;96462.28;1751294;80;21127;-84
2022/09/28 10:25:17;;;;;;;2.10;0.90;;;;;;;14.73;57.92;96458.42;1743947;80;21017;-89
2022/09/28 10:27:48;;;;;;;0.93;0.60;;;;;;;14.91;57.31;96457.80;1749488;80;21140;-84
2022/09/28 10:30:17;;;;;;;0.50;0.30;;;;;;;15.02;58.10;96449.13;1750405;80;21083;-90
2022/09/28 10:32:49;;;;;;;2.17;0.98;;;;;;;15.23;56.82;96452.47;1751542;80;21563;-88
2022/09/28 10:35:25;;;;;;;1.65;0.80;;;;;;;15.39;55.30;96450.59;1756529;80;21108;-90
2022/09/28 10:38:17;;;;;;;8.93;2.98;;;;;;;15.59;56.26;96446.61;1698937;83;21087;-90
2022/09/28 10:40:48;;;;;;;1.02;0.60;;;;;;;15.96;55.42;96445.83;1728427;81;21060;-84
2022/09/28 10:43:27;;;;;;;3.58;0.70;;;;;;;16.06;57.12;96428.91;1720837;82;21005;-90
2022/09/28 10:46:08;;;;;;;1.27;0.68;;;;;;;16.38;56.86;96429.67;1740511;81;21076;-85
2022/09/28 10:49:14;;;;;;;1.05;0.57;;;;;;;16.73;51.69;96421.50;1741064;80;21927;-84
2022/09/28 10:51:48;;;;;;;2.30;0.85;;;;;;;16.49;53.66;96415.69;1730589;81;20967;-84
2022/09/28 10:54:22;;;;;;;2.02;0.70;;;;;;;16.46;54.88;96411.50;1695692;82;21493;-88
2022/09/28 10:56:48;;;;;;;3.05;1.55;;;;;;;16.40;52.84;96405.50;1713769;81;21116;-89
2022/09/28 10:59:39;;;;;;;3.67;1.57;;;;;;;16.12;54.04;96406.22;1706581;82;22453;-84
2022/09/28 11:02:22;;;;;;;3.02;1.30;;;;;;;16.12;53.38;96400.18;1733191;81;21079;-89
2022/09/28 11:04:59;;;;;;;1.90;1.00;;;;;;;15.98;54.66;96390.27;1734573;81;21105;-88
2022/09/28 11:07:26;;;;;;;1.02;0.60;;;;;;;16.04;55.23;96405.25;1731384;81;21134;-89
2022/09/28 11:09:53;;;;;;;2.30;0.72;;;;;;;16.15;54.37;96394.02;1750425;80;21052;-84
2022/09/28 11:12:38;;;;;;;3.27;1.42;;;;;;;16.33;53.99;96399.89;1758280;80;21158;-84
2022/09/28 11:15:06;;;;;;;1.27;0.80;;;;;;;16.46;54.77;96391.78;1764357;80;21534;-89
2022/09/28 11:17:40;;;;;;;3.98;1.22;;;;;;;16.62;54.51;96391.73;1765877;79;20997;-84
2022/09/28 11:20:28;;;;;;;1.37;0.60;;;;;;;16.61;54.38;96386.84;1745102;80;21043;-84
2022/09/28 11:22:59;;;;;;;7.30;1.47;;;;;;;16.79;54.57;96390.56;1754788;80;21093;-87
2022/09/28 11:25:27;;;;;;;0.90;0.62;;;;;;;16.67;55.92;96383.84;1753646;80;21068;-87
2022/09/28 11:28:00;;;;;;;2.35;0.98;;;;;;;16.60;55.40;96374.33;1752488;80;21178;-86
2022/09/28 11:30:47;;;;;;;0.72;0.47;;;;;;;16.49;55.24;96369.77;1760323;80;21076;-87
2022/09/28 11:33:37;;;;;;;1.95;0.80;;;;;;;16.33;53.55;96367.09;1751612;80;21585;-83
2022/09/28 11:36:23;;;;;;;5.55;0.90;;;;;;;16.24;54.80;96356.37;1748846;80;21885;-84
2022/09/28 11:39:18;;;;;;;1.15;0.57;;;;;;;16.13;55.21;96351.78;1745166;81;21365;-87
2022/09/28 11:41:56;;;;;;;1.85;1.00;;;;;;;16.06;55.21;96347.77;1741677;80;21100;-86
2022/09/28 11:44:38;;;;;;;4.05;2.02;;;;;;;15.97;55.54;96338.16;1754474;80;20952;-83
2022/09/28 11:47:27;;;;;;;1.57;0.90;;;;;;;16.06;53.85;96334.66;1750460;81;20976;-87
2022/09/28 11:50:00;;;;;;;3.05;1.82;;;;;;;16.04;53.40;96322.72;1739004;80;21050;-86
2022/09/28 11:52:30;;;;;;;1.72;1.00;;;;;;;16.28;54.20;96329.11;1744795;81;21001;-87
2022/09/28 11:55:07;;;;;;;3.35;1.42;;;;;;;16.53;53.91;96333.74;1734152;81;22373;-83